DFFD

Ouagadougou Airport

Ouagadougou, Burkina Faso
TAF DFFD 151100Z 1512/1618 22008KT 9999 FEW020 TEMPO 1514/1602 4000 TSRA SCT020 FEW033CB
Issued Valid From Valid To
Aug-15 @ 11:00 UTC
(2 hours ago)
Aug-15 @ 12:00 UTC
(42 minutes ago)
Aug-16 @ 18:00 UTC
(-1 days ago)
Aug-15 @ 12:00 to Aug-16 @ 18:00
TAF DFFD 151100Z 1512/1618 22008KT 9999 FEW020
Wind Visibility Clouds
220° at 8 knots 10,000+ meters
  • Few at 2,000' AGL
Temporary Aug-15 @ 14:00 to Aug-16 @ 02:00
TEMPO 1514/1602 4000 TSRA SCT020 FEW033CB
Visibility Clouds Conditions
4,007 meters
  • Scattered at 2,000' AGL
  • Few at 3,300' AGL
  • Thunderstorm
  • Rain
TAF DFFD 151100Z 1512/1618 22008KT 9999 FEW020 TEMPO 1514/1602 4000 TSRA SCT020 FEW033CB
Issued Aug-15 @ 11:00 UTC
(2 hours ago)
Valid From Aug-15 @ 12:00 UTC
(42 minutes ago)
Valid To Aug-16 @ 18:00 UTC
(-1 days ago)
Aug-15 @ 12:00 - Aug-16 @ 18:00
Wind Visibility
220° at 8 knots 10,000+ meters
Clouds
  • Few at 2,000' AGL
Temporary Aug-15 @ 14:00 - Aug-16 @ 02:00
Clouds
  • Scattered at 2,000' AGL
  • Few at 3,300' AGL
Conditions
  • Thunderstorm
  • Rain